Aérodrome :
LOGIN :

S'inscrire | Disclaimer

   EN    FR    IT 

 










Légende :    VFR   VFR Marginal   IFR   IFR Intensif   IFR Très Intensif
Visi : 
Plafond : 
>= 8 km
>= 3000ft
5 à 8 km
1000 à 3000 ft
1500m à 5 km
500 à 1000 ft
800 à 1500m
200 à 500 ft
< 800m
< 200 ft
Symboles :   Orages  Brouillard  Fortes neiges  Fortes précipitations  Vent > 20 kt
SIGMETs :   Divers  Orages  Givrage  Turbulence  Onde Orograph.  Cendres Volcan.







- Altitude de l'aérodrome : 580 ft
- Voir les cartes d'approche


LFOA - Avord

DERNIER METAR :
  • 161230Z AUTO 25008KT 220V280 CAVOK 08/02 Q1013 NOSIG

METARs EXPIRÉS :
  • 161200Z AUTO 24006KT 210V270 CAVOK 07/01 Q1013 NOSIG
  • 161130Z AUTO 24007KT 200V270 CAVOK 07/01 Q1014 NOSIG
  • 161100Z AUTO 22004KT 190V260 CAVOK 06/01 Q1014 NOSIG
  • 161030Z AUTO 22004KT CAVOK 05/01 Q1015 NOSIG
  • 161000Z AUTO 21003KT CAVOK 04/01 Q1015 NOSIG

TAF TAF LFOA
Valide du 16 à 09h jusqu'au 17 à 09h UTC


160800Z 1609/1709 16003KT CAVOK
BECMG 1612/1614 23005KT
TEMPO 1700/1705 4000 -RA BKN012
TEMPO 1705/1709 23010G20KT
Pas de NOTAMs connus pour ce terrain.



MET'MAP, la Météo Aéronautique d'un coup d'oeil ! - Copyright ORBIFLY Décembre 2007 - Disclaimer

ORBIFLY MET'MAP TEAM :

Programmation & Développement : Alexandra Zaïnal
Conception & Développement : Baudouin d'Aumeries
Co-Programmation & Développement : Marc-Olivier Méhu
Soutien technique & logistique : Manuel Goepfert

Contact : metmap@orbifly.com




SOURCES & CREDITS :

   NOAA